Edna T. Gattle — WDD2528 — position and weather

sailwx.info

Track history (hours):
 
Tides and Currents Weather Stations Pressure Air Temp Water Temp Dewpoint Dewpoint Depression Visibility Wind Speed Wind Dir Waves Ship Positions

Edna T. Gattle

Owner: Terral RiverService, Inc., Lake Providence, LA. More information available from US FCC via Universal Licensing System and Coast Guard Vessel Documentation Center.

Last reported at 2016-Jul-26 09:33 UTC. Time now 2016-Jul-26 10:16 UTC.
Position N 29°48' W 093°20'.

Length 33 m; draft 2.8 m.

Type: Towing. MMSI: 367116420.

Date/timePositionNaut miles runAvg speedWind from/ knotsBaromVisibWave heightAir tempDewpointWater temp
2016-Jul-26 09:33N 29°48' W 093°20'0 0.0
2016-Jul-26 08:33N 29°48' W 093°20'0 0.0
2016-Jul-26 07:33N 29°48' W 093°20'0 0.0
2016-Jul-26 06:33N 29°48' W 093°20'0 0.0
2016-Jul-26 05:33N 29°48' W 093°20'0 0.0
2016-Jul-26 04:33N 29°48' W 093°20'0 0.0
2016-Jul-26 03:33N 29°48' W 093°20'0 0.0
2016-Jul-26 02:29N 29°48' W 093°20'0 0.0
2016-Jul-26 01:30N 29°48' W 093°20'0 0.5
2016-Jul-26 00:33N 29°48' W 093°20'0 0.4
2016-Jul-25 23:33N 29°48' W 093°20'0 0.0
2016-Jul-25 22:33N 29°48' W 093°20'0 0.0
2016-Jul-25 21:33N 29°48' W 093°20'0 0.1
2016-Jul-25 20:33N 29°48' W 093°20'0 0.4
2016-Jul-25 19:33N 29°48' W 093°20'0 0.4
2016-Jul-25 18:34N 29°48' W 093°20'0 0.0
2016-Jul-25 17:33N 29°48' W 093°20'0 0.0
2016-Jul-25 16:33N 29°48' W 093°20'0 0.4
2016-Jul-25 15:33N 29°48' W 093°20'0 0.0
2016-Jul-25 14:33N 29°48' W 093°20'0 0.4
2016-Jul-25 13:33N 29°48' W 093°20'0 0.0
2016-Jul-25 12:33N 29°48' W 093°20'0 0.0
2016-Jul-25 11:33N 29°48' W 093°20'0 0.0
2016-Jul-25 10:33N 29°48' W 093°20'0 0.0
2016-Jul-25 09:33N 29°48' W 093°20'0 0.0
2016-Jul-25 08:33N 29°48' W 093°20'0 0.0
2016-Jul-25 07:33N 29°48' W 093°20'0 0.0
2016-Jul-25 06:33N 29°48' W 093°20'0 0.0
2016-Jul-25 05:33N 29°48' W 093°20'0 0.0
2016-Jul-25 04:33N 29°48' W 093°20'0 0.0
2016-Jul-25 03:33N 29°48' W 093°20'0 0.0
2016-Jul-25 02:33N 29°48' W 093°20'0 0.0
2016-Jul-25 01:33N 29°48' W 093°20'0 0.0
2016-Jul-25 00:33N 29°48' W 093°20'0 0.0
2016-Jul-24 23:33N 29°48' W 093°20'0 0.0
2016-Jul-24 22:33N 29°48' W 093°20'0 0.0
2016-Jul-24 21:33N 29°48' W 093°20'0 0.0
2016-Jul-24 20:33N 29°48' W 093°20'0 0.0
2016-Jul-24 19:33N 29°48' W 093°20'0 0.0
2016-Jul-24 18:33N 29°48' W 093°20'0 0.0
2016-Jul-24 17:33N 29°48' W 093°20'0 0.0
2016-Jul-24 16:33N 29°48' W 093°20'1 0.7
2016-Jul-24 15:33N 29°48' W 093°19'1 0.8
2016-Jul-24 14:33N 29°48' W 093°20'3 3.5
2016-Jul-24 13:33N 29°51' W 093°21'7 7.4
2016-Jul-24 12:33N 29°59' W 093°20'8 7.5
2016-Jul-24 11:33N 30°06' W 093°19'0 0.3
2016-Jul-24 10:34N 30°06' W 093°18'0 0.0
2016-Jul-24 09:33N 30°06' W 093°18'0 0.0
2016-Jul-24 08:34N 30°06' W 093°18'0 0.0
2016-Jul-24 07:34N 30°06' W 093°18'0 0.0
2016-Jul-24 06:33N 30°06' W 093°18'0 0.1
2016-Jul-24 05:34N 30°06' W 093°18'1 1.2
2016-Jul-24 04:33N 30°05' W 093°17'1 1.3
2016-Jul-24 03:34N 30°04' W 093°16'0 0.0
2016-Jul-24 02:33N 30°04' W 093°16'3 2.5
2016-Jul-24 01:34N 30°02' W 093°15'4 4.3
2016-Jul-24 00:32N 29°59' W 093°12'4 4.4
2016-Jul-23 23:34N 29°56' W 093°08'5 4.6
2016-Jul-23 22:34N 29°56' W 093°03'5 4.7
2016-Jul-23 21:30N 29°56' W 092°57'20 4.6
2016-Jul-23 17:09N 29°55' W 092°34'3 4.7
2016-Jul-23 16:31N 29°54' W 092°31'5 4.7
2016-Jul-23 15:34N 29°53' W 092°26'4 4.3
2016-Jul-23 14:33N 29°51' W 092°22'4 4.4
2016-Jul-23 13:34N 29°49' W 092°17'5 4.9
2016-Jul-23 12:33N 29°47' W 092°12'5 5.0
2016-Jul-23 11:34N 29°48' W 092°06'5 4.9
2016-Jul-23 10:33N 29°49' W 092°01'5 4.7
2016-Jul-23 09:33N 29°51' W 091°56'12 3.8
2016-Jul-23 06:29N 29°46' W 091°44'  
2016-Jul-17 08:10N 29°46' W 091°37'4 6.4
2016-Jul-17 07:33N 29°46' W 091°42'6 5.4
2016-Jul-17 06:30N 29°47' W 091°48'11 5.5
2016-Jul-17 04:33N 29°50' W 091°60'7 6.9
2016-Jul-17 03:33N 29°47' W 092°07'5 5.3
2016-Jul-17 02:33N 29°48' W 092°13'1 1.0
2016-Jul-17 01:33N 29°48' W 092°15'3 2.7
2016-Jul-17 00:33N 29°47' W 092°12'1 0.9
2016-Jul-16 23:33N 29°47' W 092°11'0 0.1
2016-Jul-16 22:33N 29°47' W 092°11'3 2.9
2016-Jul-16 21:33N 29°47' W 092°07'5 5.1
2016-Jul-16 20:33N 29°49' W 092°02'5 4.9
2016-Jul-16 19:33N 29°51' W 091°56'9 4.6
2016-Jul-16 17:31N 29°46' W 091°47'  
Track history (hours):
 
Tides and Currents Weather Stations Pressure Air Temp Water Temp Dewpoint Dewpoint Depression Visibility Wind Speed Wind Dir Waves Ship Positions

Edna T. Gattle

Owner: Terral RiverService, Inc., Lake Providence, LA. More information available from US FCC via Universal Licensing System and Coast Guard Vessel Documentation Center.

Last reported at 2016-Jul-26 09:33 UTC. Time now 2016-Jul-26 10:16 UTC.
Position N 29°48' W 093°20'.

Length 33 m; draft 2.8 m.

Type: Towing. MMSI: 367116420.

Date/timePositionNaut miles runAvg speedWind from/ knotsBaromVisibWave heightAir tempDewpointWater temp
2016-Jul-26 09:33N 29°48' W 093°20'0 0.0
2016-Jul-26 08:33N 29°48' W 093°20'0 0.0
2016-Jul-26 07:33N 29°48' W 093°20'0 0.0
2016-Jul-26 06:33N 29°48' W 093°20'0 0.0
2016-Jul-26 05:33N 29°48' W 093°20'0 0.0
2016-Jul-26 04:33N 29°48' W 093°20'0 0.0
2016-Jul-26 03:33N 29°48' W 093°20'0 0.0
2016-Jul-26 02:29N 29°48' W 093°20'0 0.0
2016-Jul-26 01:30N 29°48' W 093°20'0 0.5
2016-Jul-26 00:33N 29°48' W 093°20'0 0.4
2016-Jul-25 23:33N 29°48' W 093°20'0 0.0
2016-Jul-25 22:33N 29°48' W 093°20'0 0.0
2016-Jul-25 21:33N 29°48' W 093°20'0 0.1
2016-Jul-25 20:33N 29°48' W 093°20'0 0.4
2016-Jul-25 19:33N 29°48' W 093°20'0 0.4
2016-Jul-25 18:34N 29°48' W 093°20'0 0.0
2016-Jul-25 17:33N 29°48' W 093°20'0 0.0
2016-Jul-25 16:33N 29°48' W 093°20'0 0.4
2016-Jul-25 15:33N 29°48' W 093°20'0 0.0
2016-Jul-25 14:33N 29°48' W 093°20'0 0.4
2016-Jul-25 13:33N 29°48' W 093°20'0 0.0
2016-Jul-25 12:33N 29°48' W 093°20'0 0.0
2016-Jul-25 11:33N 29°48' W 093°20'0 0.0
2016-Jul-25 10:33N 29°48' W 093°20'0 0.0
2016-Jul-25 09:33N 29°48' W 093°20'0 0.0
2016-Jul-25 08:33N 29°48' W 093°20'0 0.0
2016-Jul-25 07:33N 29°48' W 093°20'0 0.0
2016-Jul-25 06:33N 29°48' W 093°20'0 0.0
2016-Jul-25 05:33N 29°48' W 093°20'0 0.0
2016-Jul-25 04:33N 29°48' W 093°20'0 0.0
2016-Jul-25 03:33N 29°48' W 093°20'0 0.0
2016-Jul-25 02:33N 29°48' W 093°20'0 0.0
2016-Jul-25 01:33N 29°48' W 093°20'0 0.0
2016-Jul-25 00:33N 29°48' W 093°20'0 0.0
2016-Jul-24 23:33N 29°48' W 093°20'0 0.0
2016-Jul-24 22:33N 29°48' W 093°20'0 0.0
2016-Jul-24 21:33N 29°48' W 093°20'0 0.0
2016-Jul-24 20:33N 29°48' W 093°20'0 0.0
2016-Jul-24 19:33N 29°48' W 093°20'0 0.0
2016-Jul-24 18:33N 29°48' W 093°20'0 0.0
2016-Jul-24 17:33N 29°48' W 093°20'0 0.0
2016-Jul-24 16:33N 29°48' W 093°20'1 0.7
2016-Jul-24 15:33N 29°48' W 093°19'1 0.8
2016-Jul-24 14:33N 29°48' W 093°20'3 3.5
2016-Jul-24 13:33N 29°51' W 093°21'7 7.4
2016-Jul-24 12:33N 29°59' W 093°20'8 7.5
2016-Jul-24 11:33N 30°06' W 093°19'0 0.3
2016-Jul-24 10:34N 30°06' W 093°18'0 0.0
2016-Jul-24 09:33N 30°06' W 093°18'0 0.0
2016-Jul-24 08:34N 30°06' W 093°18'0 0.0
2016-Jul-24 07:34N 30°06' W 093°18'0 0.0
2016-Jul-24 06:33N 30°06' W 093°18'0 0.1
2016-Jul-24 05:34N 30°06' W 093°18'1 1.2
2016-Jul-24 04:33N 30°05' W 093°17'1 1.3
2016-Jul-24 03:34N 30°04' W 093°16'0 0.0
2016-Jul-24 02:33N 30°04' W 093°16'3 2.5
2016-Jul-24 01:34N 30°02' W 093°15'4 4.3
2016-Jul-24 00:32N 29°59' W 093°12'4 4.4
2016-Jul-23 23:34N 29°56' W 093°08'5 4.6
2016-Jul-23 22:34N 29°56' W 093°03'5 4.7
2016-Jul-23 21:30N 29°56' W 092°57'20 4.6
2016-Jul-23 17:09N 29°55' W 092°34'3 4.7
2016-Jul-23 16:31N 29°54' W 092°31'5 4.7
2016-Jul-23 15:34N 29°53' W 092°26'4 4.3
2016-Jul-23 14:33N 29°51' W 092°22'4 4.4
2016-Jul-23 13:34N 29°49' W 092°17'5 4.9
2016-Jul-23 12:33N 29°47' W 092°12'5 5.0
2016-Jul-23 11:34N 29°48' W 092°06'5 4.9
2016-Jul-23 10:33N 29°49' W 092°01'5 4.7
2016-Jul-23 09:33N 29°51' W 091°56'12 3.8
2016-Jul-23 06:29N 29°46' W 091°44'  
2016-Jul-17 08:10N 29°46' W 091°37'4 6.4
2016-Jul-17 07:33N 29°46' W 091°42'6 5.4
2016-Jul-17 06:30N 29°47' W 091°48'11 5.5
2016-Jul-17 04:33N 29°50' W 091°60'7 6.9
2016-Jul-17 03:33N 29°47' W 092°07'5 5.3
2016-Jul-17 02:33N 29°48' W 092°13'1 1.0
2016-Jul-17 01:33N 29°48' W 092°15'3 2.7
2016-Jul-17 00:33N 29°47' W 092°12'1 0.9
2016-Jul-16 23:33N 29°47' W 092°11'0 0.1
2016-Jul-16 22:33N 29°47' W 092°11'3 2.9
2016-Jul-16 21:33N 29°47' W 092°07'5 5.1
2016-Jul-16 20:33N 29°49' W 092°02'5 4.9
2016-Jul-16 19:33N 29°51' W 091°56'9 4.6
2016-Jul-16 17:31N 29°46' W 091°47'  

Dump ship's entire track history